MYTBM LSZH-EGPC
Flight info
| Callsign | MYTBM |
|---|---|
| Flight time | 2h 58m |
| Altitude | 30000 |
| Route | VEBIT T10 TORPA/N0302F310 DCT GIVOR/N0302F300 DCT ROUSY DCT AQBEF DCT GODOS DCT ROLUM DCT DOKEN DCT MADAD/N0305F270 DCT NEXUS/N0258F100 DCT EPCAN |
| Aircraft | TBM8/L-SDFGRWY/S |
Departure
| Time | 2026-05-07 08:05 |
|---|---|
| Airport | Zürich Airport (LSZH) |
Arrival
| Time | 2026-05-07 11:04 |
|---|---|
| Airport | Wick John O'Groats Airport (EGPC) |
| Time | Latitude | Longitude | Altitude | Speed | Heading |
|---|---|---|---|---|---|
| 2026-05-07 07:58 | 47.45389 | 8.57343 | 1414 ft | 0 kts | 5° |
| 2026-05-07 08:02 | 47.45406 | 8.57335 | 1414 ft | 7 kts | 306° |
| 2026-05-07 08:02 | 47.45419 | 8.57246 | 1415 ft | 6 kts | 310° |
| 2026-05-07 08:02 | 47.45445 | 8.57225 | 1415 ft | 4 kts | 331° |
| 2026-05-07 08:02 | 47.45471 | 8.57202 | 1415 ft | 6 kts | 328° |
| 2026-05-07 08:03 | 47.45501 | 8.57139 | 1415 ft | 10 kts | 274° |
| 2026-05-07 08:03 | 47.45517 | 8.57014 | 1415 ft | 14 kts | 318° |
| 2026-05-07 08:03 | 47.45574 | 8.57014 | 1416 ft | 1 kts | 6° |
| 2026-05-07 08:04 | 47.45581 | 8.57015 | 1417 ft | 5 kts | 6° |
| 2026-05-07 08:04 | 47.45652 | 8.57025 | 1419 ft | 13 kts | 340° |
| 2026-05-07 08:04 | 47.45663 | 8.56996 | 1419 ft | 0 kts | 277° |
| 2026-05-07 08:04 | 47.45666 | 8.56960 | 1419 ft | 18 kts | 275° |
| 2026-05-07 08:05 | 47.45699 | 8.56498 | 1411 ft | 71 kts | 275° |
| 2026-05-07 08:05 | 47.45769 | 8.55552 | 1436 ft | 110 kts | 273° |
| 2026-05-07 08:05 | 47.45870 | 8.54336 | 1707 ft | 126 kts | 274° |
| 2026-05-07 08:05 | 47.45962 | 8.53034 | 2229 ft | 127 kts | 274° |
| 2026-05-07 08:06 | 47.46042 | 8.51746 | 2843 ft | 125 kts | 275° |
| 2026-05-07 08:06 | 47.46124 | 8.50485 | 3413 ft | 124 kts | 276° |
| 2026-05-07 08:06 | 47.46222 | 8.49226 | 3973 ft | 124 kts | 275° |
| 2026-05-07 08:06 | 47.46111 | 8.47996 | 4522 ft | 124 kts | 238° |
| 2026-05-07 08:07 | 47.45459 | 8.47142 | 5002 ft | 127 kts | 224° |
| 2026-05-07 08:07 | 47.44860 | 8.46205 | 5459 ft | 125 kts | 235° |
| 2026-05-07 08:07 | 47.44320 | 8.45181 | 5877 ft | 129 kts | 236° |
| 2026-05-07 08:07 | 47.43778 | 8.44119 | 6343 ft | 130 kts | 236° |
| 2026-05-07 08:08 | 47.43235 | 8.43052 | 6745 ft | 131 kts | 236° |
| 2026-05-07 08:08 | 47.42677 | 8.41939 | 7136 ft | 136 kts | 236° |
| 2026-05-07 08:08 | 47.42116 | 8.40835 | 7631 ft | 136 kts | 236° |
| 2026-05-07 08:08 | 47.41546 | 8.39708 | 8121 ft | 138 kts | 236° |
| 2026-05-07 08:09 | 47.40969 | 8.38571 | 8587 ft | 139 kts | 236° |
| 2026-05-07 08:09 | 47.40391 | 8.37432 | 9085 ft | 139 kts | 236° |
| 2026-05-07 08:09 | 47.39809 | 8.36286 | 9597 ft | 140 kts | 236° |
| 2026-05-07 08:09 | 47.39226 | 8.35133 | 10048 ft | 141 kts | 235° |
| 2026-05-07 08:10 | 47.38663 | 8.33943 | 10460 ft | 142 kts | 238° |
| 2026-05-07 08:10 | 47.38206 | 8.32631 | 10859 ft | 145 kts | 246° |
| 2026-05-07 08:10 | 47.37765 | 8.31277 | 11248 ft | 148 kts | 244° |
| 2026-05-07 08:10 | 47.37290 | 8.29913 | 11642 ft | 150 kts | 243° |
| 2026-05-07 08:11 | 47.36804 | 8.28542 | 12039 ft | 151 kts | 243° |
| 2026-05-07 08:11 | 47.36314 | 8.27163 | 12427 ft | 153 kts | 244° |
| 2026-05-07 08:11 | 47.35817 | 8.25770 | 12823 ft | 154 kts | 244° |
| 2026-05-07 08:11 | 47.35316 | 8.24362 | 13220 ft | 156 kts | 244° |
| 2026-05-07 08:12 | 47.34813 | 8.22952 | 13614 ft | 157 kts | 244° |
| 2026-05-07 08:12 | 47.34305 | 8.21517 | 13993 ft | 158 kts | 244° |
| 2026-05-07 08:12 | 47.33790 | 8.20069 | 14346 ft | 160 kts | 244° |
| 2026-05-07 08:12 | 47.33270 | 8.18606 | 14715 ft | 161 kts | 244° |
| 2026-05-07 08:13 | 47.32744 | 8.17133 | 15078 ft | 163 kts | 244° |
| 2026-05-07 08:13 | 47.32216 | 8.15650 | 15441 ft | 164 kts | 244° |
| 2026-05-07 08:13 | 47.31690 | 8.14172 | 15807 ft | 165 kts | 244° |
| 2026-05-07 08:13 | 47.31154 | 8.12665 | 16170 ft | 167 kts | 244° |
| 2026-05-07 08:14 | 47.30613 | 8.11143 | 16520 ft | 168 kts | 244° |
| 2026-05-07 08:14 | 47.30071 | 8.09612 | 16903 ft | 167 kts | 244° |
| 2026-05-07 08:14 | 47.29528 | 8.08092 | 17258 ft | 169 kts | 244° |
| 2026-05-07 08:14 | 47.28980 | 8.06553 | 17608 ft | 170 kts | 244° |
| 2026-05-07 08:15 | 47.28430 | 8.05004 | 17969 ft | 171 kts | 244° |
| 2026-05-07 08:15 | 47.27875 | 8.03448 | 18312 ft | 172 kts | 244° |
| 2026-05-07 08:15 | 47.27316 | 8.01884 | 18619 ft | 173 kts | 245° |
| 2026-05-07 08:15 | 47.26912 | 8.00258 | 18895 ft | 172 kts | 269° |
| 2026-05-07 08:16 | 47.27062 | 7.98519 | 19204 ft | 172 kts | 279° |
| 2026-05-07 08:16 | 47.27227 | 7.96771 | 19513 ft | 173 kts | 278° |
| 2026-05-07 08:16 | 47.27394 | 7.95010 | 19831 ft | 174 kts | 278° |
| 2026-05-07 08:16 | 47.27564 | 7.93241 | 20152 ft | 175 kts | 278° |
| 2026-05-07 08:17 | 47.27736 | 7.91463 | 20494 ft | 176 kts | 278° |
| 2026-05-07 08:17 | 47.27909 | 7.89669 | 20823 ft | 177 kts | 278° |
| 2026-05-07 08:17 | 47.28079 | 7.87890 | 21151 ft | 178 kts | 278° |
| 2026-05-07 08:17 | 47.28252 | 7.86077 | 21455 ft | 179 kts | 278° |
| 2026-05-07 08:18 | 47.28427 | 7.84251 | 21748 ft | 180 kts | 278° |
| 2026-05-07 08:18 | 47.28602 | 7.82411 | 22039 ft | 181 kts | 278° |
| 2026-05-07 08:18 | 47.28778 | 7.80570 | 22324 ft | 182 kts | 278° |
| 2026-05-07 08:18 | 47.28953 | 7.78730 | 22608 ft | 183 kts | 278° |
| 2026-05-07 08:19 | 47.29128 | 7.76871 | 22891 ft | 184 kts | 278° |
| 2026-05-07 08:19 | 47.29307 | 7.74998 | 23171 ft | 185 kts | 278° |
| 2026-05-07 08:19 | 47.29484 | 7.73119 | 23447 ft | 186 kts | 278° |
| 2026-05-07 08:19 | 47.29663 | 7.71223 | 23701 ft | 187 kts | 278° |
| 2026-05-07 08:20 | 47.29842 | 7.69323 | 23927 ft | 188 kts | 279° |
| 2026-05-07 08:20 | 47.30022 | 7.67411 | 24154 ft | 189 kts | 279° |
| 2026-05-07 08:20 | 47.30203 | 7.65484 | 24391 ft | 190 kts | 279° |
| 2026-05-07 08:20 | 47.30384 | 7.63550 | 24624 ft | 191 kts | 279° |
| 2026-05-07 08:21 | 47.30709 | 7.61679 | 24832 ft | 191 kts | 290° |
| 2026-05-07 08:21 | 47.31132 | 7.59815 | 25061 ft | 192 kts | 288° |
| 2026-05-07 08:21 | 47.31539 | 7.57933 | 25274 ft | 193 kts | 288° |
| 2026-05-07 08:21 | 47.31948 | 7.56040 | 25486 ft | 194 kts | 289° |
| 2026-05-07 08:22 | 47.32362 | 7.54138 | 25713 ft | 195 kts | 289° |
| 2026-05-07 08:22 | 47.32779 | 7.52225 | 25950 ft | 196 kts | 289° |
| 2026-05-07 08:22 | 47.33196 | 7.50304 | 26174 ft | 197 kts | 289° |
| 2026-05-07 08:22 | 47.33618 | 7.48368 | 26400 ft | 198 kts | 289° |
| 2026-05-07 08:23 | 47.34034 | 7.46444 | 26588 ft | 200 kts | 289° |
| 2026-05-07 08:23 | 47.34462 | 7.44479 | 26798 ft | 202 kts | 289° |
| 2026-05-07 08:23 | 47.34889 | 7.42501 | 27017 ft | 202 kts | 289° |
| 2026-05-07 08:23 | 47.35317 | 7.40522 | 27234 ft | 203 kts | 289° |
| 2026-05-07 08:24 | 47.35746 | 7.38537 | 27476 ft | 203 kts | 290° |
| 2026-05-07 08:24 | 47.36177 | 7.36544 | 27656 ft | 205 kts | 289° |
| 2026-05-07 08:24 | 47.36611 | 7.34533 | 27864 ft | 206 kts | 290° |
| 2026-05-07 08:24 | 47.37044 | 7.32522 | 28071 ft | 206 kts | 290° |
| 2026-05-07 08:25 | 47.37482 | 7.30489 | 28244 ft | 208 kts | 289° |
| 2026-05-07 08:25 | 47.38198 | 7.28721 | 28421 ft | 205 kts | 323° |
| 2026-05-07 08:25 | 47.39472 | 7.27821 | 28644 ft | 204 kts | 340° |
| 2026-05-07 08:25 | 47.40800 | 7.27047 | 28831 ft | 206 kts | 337° |
| 2026-05-07 08:26 | 47.43397 | 7.25270 | 29253 ft | 206 kts | 336° |
| 2026-05-07 08:26 | 47.44698 | 7.24377 | 29483 ft | 206 kts | 335° |
| 2026-05-07 08:26 | 47.46001 | 7.23483 | 29660 ft | 208 kts | 336° |
| 2026-05-07 08:27 | 47.47318 | 7.22581 | 29860 ft | 208 kts | 336° |
| 2026-05-07 08:27 | 47.48635 | 7.21676 | 30033 ft | 210 kts | 336° |
| 2026-05-07 08:27 | 47.49996 | 7.20745 | 30044 ft | 220 kts | 336° |
| 2026-05-07 08:27 | 47.51420 | 7.19772 | 30049 ft | 230 kts | 336° |
| 2026-05-07 08:28 | 47.52904 | 7.18753 | 30050 ft | 240 kts | 336° |
| 2026-05-07 08:28 | 47.54435 | 7.17698 | 30046 ft | 249 kts | 336° |
| 2026-05-07 08:28 | 47.56025 | 7.16600 | 30046 ft | 255 kts | 336° |
| 2026-05-07 08:28 | 47.57653 | 7.15479 | 30047 ft | 261 kts | 336° |
| 2026-05-07 08:29 | 47.59319 | 7.14331 | 30048 ft | 266 kts | 336° |
| 2026-05-07 08:29 | 47.61010 | 7.13166 | 30041 ft | 270 kts | 336° |
| 2026-05-07 08:29 | 47.62705 | 7.11995 | 30045 ft | 274 kts | 336° |
| 2026-05-07 08:29 | 47.64441 | 7.10796 | 30047 ft | 277 kts | 336° |
| 2026-05-07 08:30 | 47.66197 | 7.09582 | 30046 ft | 280 kts | 335° |
| 2026-05-07 08:30 | 47.67975 | 7.08352 | 30047 ft | 283 kts | 335° |
| 2026-05-07 08:30 | 47.69768 | 7.07110 | 30045 ft | 286 kts | 335° |
| 2026-05-07 08:30 | 47.71576 | 7.05856 | 30048 ft | 288 kts | 336° |
| 2026-05-07 08:31 | 47.73397 | 7.04595 | 30044 ft | 290 kts | 335° |
| 2026-05-07 08:31 | 47.75232 | 7.03323 | 30045 ft | 291 kts | 336° |
| 2026-05-07 08:31 | 47.77070 | 7.02045 | 30043 ft | 292 kts | 335° |
| 2026-05-07 08:31 | 47.78915 | 7.00762 | 30044 ft | 293 kts | 335° |
| 2026-05-07 08:32 | 47.80767 | 6.99473 | 30041 ft | 295 kts | 335° |
| 2026-05-07 08:32 | 47.82603 | 6.98195 | 30043 ft | 296 kts | 335° |
| 2026-05-07 08:32 | 47.84469 | 6.96894 | 30045 ft | 296 kts | 335° |
| 2026-05-07 08:32 | 47.86342 | 6.95589 | 30042 ft | 297 kts | 336° |
| 2026-05-07 08:33 | 47.88216 | 6.94282 | 30046 ft | 297 kts | 335° |
| 2026-05-07 08:33 | 47.90091 | 6.92970 | 30046 ft | 298 kts | 335° |
| 2026-05-07 08:33 | 47.91336 | 6.92100 | 30045 ft | 298 kts | 335° |
| 2026-05-07 08:33 | 47.93216 | 6.90785 | 30046 ft | 299 kts | 335° |
| 2026-05-07 08:34 | 47.95104 | 6.89465 | 30046 ft | 299 kts | 335° |
| 2026-05-07 08:34 | 47.96990 | 6.88143 | 30046 ft | 299 kts | 335° |
| 2026-05-07 08:34 | 47.98876 | 6.86819 | 30046 ft | 300 kts | 335° |
| 2026-05-07 08:34 | 48.00771 | 6.85490 | 30046 ft | 300 kts | 335° |
| 2026-05-07 08:35 | 48.04532 | 6.82847 | 30049 ft | 301 kts | 335° |
| 2026-05-07 08:35 | 48.08334 | 6.80174 | 30047 ft | 303 kts | 334° |
| 2026-05-07 08:36 | 48.12153 | 6.77480 | 30046 ft | 304 kts | 334° |
| 2026-05-07 08:36 | 48.15984 | 6.74776 | 30047 ft | 305 kts | 334° |
| 2026-05-07 08:37 | 48.19825 | 6.72060 | 30044 ft | 305 kts | 334° |
| 2026-05-07 08:37 | 48.23666 | 6.69339 | 30041 ft | 305 kts | 334° |
| 2026-05-07 08:38 | 48.27478 | 6.66632 | 30046 ft | 305 kts | 334° |
| 2026-05-07 08:38 | 48.31325 | 6.63898 | 30048 ft | 306 kts | 334° |
| 2026-05-07 08:39 | 48.35173 | 6.61158 | 30050 ft | 306 kts | 334° |
| 2026-05-07 08:39 | 48.39036 | 6.58404 | 30045 ft | 307 kts | 334° |
| 2026-05-07 08:40 | 48.42873 | 6.55663 | 30047 ft | 307 kts | 334° |
| 2026-05-07 08:40 | 48.46742 | 6.52894 | 30045 ft | 308 kts | 334° |
| 2026-05-07 08:41 | 48.50618 | 6.50116 | 30037 ft | 308 kts | 333° |
| 2026-05-07 08:41 | 48.54478 | 6.47344 | 30044 ft | 308 kts | 333° |
| 2026-05-07 08:42 | 48.58354 | 6.44556 | 30044 ft | 308 kts | 333° |
| 2026-05-07 08:42 | 48.62219 | 6.41771 | 30044 ft | 307 kts | 333° |
| 2026-05-07 08:43 | 48.66104 | 6.39073 | 30047 ft | 308 kts | 341° |
| 2026-05-07 08:43 | 48.70282 | 6.37689 | 30056 ft | 309 kts | 346° |
| 2026-05-07 08:44 | 48.74495 | 6.36268 | 30052 ft | 310 kts | 346° |
| 2026-05-07 08:44 | 48.78708 | 6.34866 | 30052 ft | 310 kts | 346° |
| 2026-05-07 08:45 | 48.82925 | 6.33455 | 30051 ft | 311 kts | 346° |
| 2026-05-07 08:45 | 48.87149 | 6.32040 | 30053 ft | 311 kts | 346° |
| 2026-05-07 08:46 | 48.91378 | 6.30622 | 30053 ft | 311 kts | 346° |
| 2026-05-07 08:46 | 48.95582 | 6.29209 | 30054 ft | 310 kts | 346° |
| 2026-05-07 08:47 | 48.99798 | 6.27790 | 30050 ft | 310 kts | 346° |
| 2026-05-07 08:47 | 49.03982 | 6.26378 | 30049 ft | 309 kts | 346° |
| 2026-05-07 08:48 | 49.08182 | 6.24960 | 30046 ft | 309 kts | 346° |
| 2026-05-07 08:48 | 49.12371 | 6.23541 | 30042 ft | 308 kts | 346° |
| 2026-05-07 08:49 | 49.16564 | 6.22120 | 30046 ft | 308 kts | 346° |
| 2026-05-07 08:49 | 49.20749 | 6.20698 | 30038 ft | 307 kts | 346° |
| 2026-05-07 08:50 | 49.24894 | 6.19289 | 30024 ft | 306 kts | 347° |
| 2026-05-07 08:50 | 49.29052 | 6.17871 | 30025 ft | 305 kts | 347° |
| 2026-05-07 08:51 | 49.33202 | 6.16455 | 30024 ft | 305 kts | 347° |
| 2026-05-07 08:51 | 49.37342 | 6.15039 | 30034 ft | 304 kts | 347° |
| 2026-05-07 08:52 | 49.41444 | 6.13634 | 30029 ft | 304 kts | 347° |
| 2026-05-07 08:52 | 49.45567 | 6.12219 | 30027 ft | 303 kts | 347° |
| 2026-05-07 08:53 | 49.49405 | 6.09717 | 30017 ft | 302 kts | 326° |
| 2026-05-07 08:53 | 49.52901 | 6.06121 | 30020 ft | 302 kts | 326° |
| 2026-05-07 08:54 | 49.56400 | 6.02534 | 30021 ft | 302 kts | 326° |
| 2026-05-07 08:54 | 49.59871 | 5.98964 | 30024 ft | 302 kts | 327° |
| 2026-05-07 08:55 | 49.63365 | 5.95367 | 30028 ft | 302 kts | 327° |
| 2026-05-07 08:55 | 49.66864 | 5.91760 | 30030 ft | 302 kts | 327° |
| 2026-05-07 08:56 | 49.70366 | 5.88142 | 30031 ft | 303 kts | 326° |
| 2026-05-07 08:56 | 49.73862 | 5.84522 | 30021 ft | 303 kts | 326° |
| 2026-05-07 08:57 | 49.77361 | 5.80895 | 30023 ft | 303 kts | 326° |
| 2026-05-07 08:57 | 49.80863 | 5.77256 | 30030 ft | 303 kts | 326° |
| 2026-05-07 08:58 | 49.84345 | 5.73635 | 30031 ft | 303 kts | 326° |
| 2026-05-07 08:58 | 49.87842 | 5.69990 | 30031 ft | 303 kts | 326° |
| 2026-05-07 08:59 | 49.91339 | 5.66338 | 30031 ft | 303 kts | 326° |
| 2026-05-07 08:59 | 49.94818 | 5.62698 | 30030 ft | 303 kts | 326° |
| 2026-05-07 09:00 | 49.98310 | 5.59040 | 30037 ft | 303 kts | 326° |
| 2026-05-07 09:00 | 50.01811 | 5.55363 | 30037 ft | 303 kts | 326° |
| 2026-05-07 09:01 | 50.05300 | 5.51694 | 30037 ft | 303 kts | 326° |
| 2026-05-07 09:01 | 50.08768 | 5.48041 | 30039 ft | 303 kts | 325° |
| 2026-05-07 09:02 | 50.12258 | 5.44357 | 30041 ft | 303 kts | 325° |
| 2026-05-07 09:02 | 50.15759 | 5.40655 | 30041 ft | 304 kts | 325° |
| 2026-05-07 09:03 | 50.19260 | 5.36947 | 30042 ft | 304 kts | 325° |
| 2026-05-07 09:03 | 50.22765 | 5.33229 | 30045 ft | 304 kts | 325° |
| 2026-05-07 09:04 | 50.26245 | 5.29530 | 30047 ft | 305 kts | 325° |
| 2026-05-07 09:04 | 50.29748 | 5.25798 | 30047 ft | 305 kts | 325° |
| 2026-05-07 09:05 | 50.33255 | 5.22057 | 30047 ft | 305 kts | 325° |
| 2026-05-07 09:05 | 50.36766 | 5.18304 | 30047 ft | 305 kts | 325° |
| 2026-05-07 09:06 | 50.40250 | 5.14572 | 30045 ft | 305 kts | 325° |
| 2026-05-07 09:06 | 50.43759 | 5.10808 | 30045 ft | 305 kts | 325° |
| 2026-05-07 09:07 | 50.47266 | 5.07039 | 30044 ft | 305 kts | 324° |
| 2026-05-07 09:07 | 50.50767 | 5.03269 | 30047 ft | 305 kts | 324° |
| 2026-05-07 09:08 | 50.54248 | 4.99515 | 30052 ft | 305 kts | 324° |
| 2026-05-07 09:08 | 50.57751 | 4.95730 | 30052 ft | 305 kts | 324° |
| 2026-05-07 09:09 | 50.61256 | 4.91935 | 30051 ft | 305 kts | 324° |
| 2026-05-07 09:09 | 50.64756 | 4.88138 | 30051 ft | 305 kts | 324° |
| 2026-05-07 09:10 | 50.68255 | 4.84336 | 30051 ft | 305 kts | 324° |
| 2026-05-07 09:10 | 50.71733 | 4.80550 | 30051 ft | 305 kts | 324° |
| 2026-05-07 09:11 | 50.75227 | 4.76740 | 30051 ft | 305 kts | 324° |
| 2026-05-07 09:11 | 50.78726 | 4.72916 | 30059 ft | 305 kts | 324° |
| 2026-05-07 09:12 | 50.82222 | 4.69089 | 30065 ft | 305 kts | 324° |
| 2026-05-07 09:12 | 50.85715 | 4.65258 | 30080 ft | 305 kts | 323° |
| 2026-05-07 09:13 | 50.89202 | 4.61426 | 30082 ft | 305 kts | 323° |
| 2026-05-07 09:13 | 50.92692 | 4.57585 | 30081 ft | 305 kts | 323° |
| 2026-05-07 09:14 | 50.96182 | 4.53736 | 30077 ft | 305 kts | 323° |
| 2026-05-07 09:14 | 50.99641 | 4.49913 | 30077 ft | 305 kts | 323° |
| 2026-05-07 09:15 | 51.03121 | 4.46062 | 30079 ft | 305 kts | 323° |
| 2026-05-07 09:15 | 51.06605 | 4.42199 | 30079 ft | 305 kts | 323° |
| 2026-05-07 09:16 | 51.10085 | 4.38333 | 30080 ft | 305 kts | 323° |
| 2026-05-07 09:16 | 51.13564 | 4.34459 | 30080 ft | 305 kts | 323° |
| 2026-05-07 09:17 | 51.17043 | 4.30579 | 30077 ft | 305 kts | 323° |
| 2026-05-07 09:17 | 51.20521 | 4.26691 | 30077 ft | 305 kts | 323° |
| 2026-05-07 09:18 | 51.23979 | 4.22824 | 30080 ft | 305 kts | 323° |
| 2026-05-07 09:18 | 51.25885 | 4.21337 | 30086 ft | 308 kts | 343° |
| 2026-05-07 09:18 | 51.27982 | 4.20548 | 30079 ft | 309 kts | 345° |
| 2026-05-07 09:19 | 51.32176 | 4.18972 | 30077 ft | 309 kts | 345° |
| 2026-05-07 09:19 | 51.36368 | 4.17390 | 30057 ft | 309 kts | 345° |
| 2026-05-07 09:20 | 51.40560 | 4.15806 | 30055 ft | 310 kts | 345° |
| 2026-05-07 09:20 | 51.44730 | 4.14225 | 30055 ft | 310 kts | 345° |
| 2026-05-07 09:21 | 51.48926 | 4.12632 | 30052 ft | 310 kts | 345° |
| 2026-05-07 09:21 | 51.53121 | 4.11037 | 30056 ft | 310 kts | 345° |
| 2026-05-07 09:22 | 51.57321 | 4.09435 | 30055 ft | 310 kts | 345° |
| 2026-05-07 09:22 | 51.61518 | 4.07834 | 30058 ft | 310 kts | 345° |
| 2026-05-07 09:23 | 51.65013 | 4.06497 | 30058 ft | 310 kts | 345° |
| 2026-05-07 09:23 | 51.69215 | 4.04888 | 30064 ft | 310 kts | 345° |
| 2026-05-07 09:24 | 51.74101 | 4.03013 | 30077 ft | 310 kts | 345° |
| 2026-05-07 09:24 | 51.77622 | 4.01657 | 30077 ft | 310 kts | 345° |
| 2026-05-07 09:25 | 51.81796 | 4.00049 | 30077 ft | 310 kts | 345° |
| 2026-05-07 09:25 | 51.85996 | 3.98428 | 30079 ft | 310 kts | 345° |
| 2026-05-07 09:26 | 51.90196 | 3.96803 | 30082 ft | 310 kts | 345° |
| 2026-05-07 09:26 | 51.94394 | 3.95176 | 30084 ft | 310 kts | 345° |
| 2026-05-07 09:27 | 51.98568 | 3.93555 | 30084 ft | 310 kts | 345° |
| 2026-05-07 09:28 | 52.04872 | 3.91101 | 30085 ft | 310 kts | 345° |
| 2026-05-07 09:28 | 52.09034 | 3.89478 | 30086 ft | 309 kts | 345° |
| 2026-05-07 09:29 | 52.13228 | 3.87838 | 30088 ft | 309 kts | 345° |
| 2026-05-07 09:29 | 52.17405 | 3.86200 | 30087 ft | 308 kts | 345° |
| 2026-05-07 09:30 | 52.21555 | 3.84573 | 30087 ft | 308 kts | 345° |
| 2026-05-07 09:30 | 52.25728 | 3.82934 | 30091 ft | 307 kts | 347° |
| 2026-05-07 09:31 | 52.29890 | 3.81291 | 30094 ft | 307 kts | 347° |
| 2026-05-07 09:31 | 52.34046 | 3.79652 | 30094 ft | 306 kts | 347° |
| 2026-05-07 09:32 | 52.38167 | 3.78022 | 30090 ft | 306 kts | 347° |
| 2026-05-07 09:32 | 52.42309 | 3.76381 | 30093 ft | 306 kts | 347° |
| 2026-05-07 09:33 | 52.46452 | 3.74736 | 30089 ft | 306 kts | 347° |
| 2026-05-07 09:33 | 52.50586 | 3.73092 | 30090 ft | 306 kts | 348° |
| 2026-05-07 09:34 | 52.54717 | 3.71445 | 30092 ft | 305 kts | 348° |
| 2026-05-07 09:34 | 52.58828 | 3.69804 | 30092 ft | 305 kts | 348° |
| 2026-05-07 09:35 | 52.62958 | 3.68151 | 30091 ft | 305 kts | 348° |
| 2026-05-07 09:35 | 52.67090 | 3.66495 | 30091 ft | 305 kts | 348° |
| 2026-05-07 09:36 | 52.71220 | 3.64837 | 30090 ft | 305 kts | 348° |
| 2026-05-07 09:36 | 52.75344 | 3.63176 | 30091 ft | 305 kts | 348° |
| 2026-05-07 09:37 | 52.79439 | 3.61526 | 30092 ft | 304 kts | 348° |
| 2026-05-07 09:37 | 52.83554 | 3.59863 | 30092 ft | 304 kts | 348° |
| 2026-05-07 09:38 | 52.87667 | 3.58199 | 30095 ft | 304 kts | 348° |
| 2026-05-07 09:38 | 52.91777 | 3.56532 | 30101 ft | 304 kts | 348° |
| 2026-05-07 09:39 | 52.95892 | 3.54860 | 30097 ft | 304 kts | 348° |
| 2026-05-07 09:39 | 52.99999 | 3.53188 | 30095 ft | 303 kts | 348° |
| 2026-05-07 09:40 | 53.04105 | 3.51512 | 30097 ft | 303 kts | 348° |
| 2026-05-07 09:40 | 53.08200 | 3.49838 | 30097 ft | 303 kts | 348° |
| 2026-05-07 09:41 | 53.12272 | 3.48170 | 30099 ft | 303 kts | 348° |
| 2026-05-07 09:41 | 53.16361 | 3.46492 | 30099 ft | 303 kts | 348° |
| 2026-05-07 09:42 | 53.20452 | 3.44810 | 30104 ft | 303 kts | 348° |
| 2026-05-07 09:42 | 53.24541 | 3.43133 | 30104 ft | 302 kts | 349° |
| 2026-05-07 09:42 | 53.26622 | 3.42740 | 30106 ft | 300 kts | 358° |
| 2026-05-07 09:43 | 53.28709 | 3.42550 | 30105 ft | 300 kts | 358° |
| 2026-05-07 09:43 | 53.30773 | 3.42334 | 30105 ft | 300 kts | 358° |
| 2026-05-07 09:43 | 53.32859 | 3.42087 | 30105 ft | 300 kts | 358° |
| 2026-05-07 09:44 | 53.36851 | 3.40317 | 30103 ft | 305 kts | 328° |
| 2026-05-07 09:44 | 53.38411 | 3.37871 | 30106 ft | 308 kts | 314° |
| 2026-05-07 09:44 | 53.39836 | 3.35187 | 30110 ft | 308 kts | 314° |
| 2026-05-07 09:45 | 53.42730 | 3.29898 | 30111 ft | 308 kts | 315° |
| 2026-05-07 09:45 | 53.45628 | 3.24593 | 30111 ft | 308 kts | 315° |
| 2026-05-07 09:46 | 53.48524 | 3.19276 | 30114 ft | 309 kts | 315° |
| 2026-05-07 09:46 | 53.51400 | 3.13987 | 30114 ft | 309 kts | 315° |
| 2026-05-07 09:47 | 53.54295 | 3.08649 | 30108 ft | 309 kts | 315° |
| 2026-05-07 09:47 | 53.57187 | 3.03309 | 30108 ft | 309 kts | 315° |
| 2026-05-07 09:48 | 53.60080 | 2.97953 | 30105 ft | 309 kts | 315° |
| 2026-05-07 09:48 | 53.62959 | 2.92610 | 30105 ft | 309 kts | 314° |
| 2026-05-07 09:49 | 53.65849 | 2.87236 | 30104 ft | 309 kts | 314° |
| 2026-05-07 09:49 | 53.68735 | 2.81856 | 30104 ft | 309 kts | 314° |
| 2026-05-07 09:50 | 53.71620 | 2.76470 | 30105 ft | 309 kts | 314° |
| 2026-05-07 09:50 | 53.74480 | 2.71116 | 30106 ft | 309 kts | 314° |
| 2026-05-07 09:51 | 53.77352 | 2.65728 | 30111 ft | 308 kts | 314° |
| 2026-05-07 09:51 | 53.80218 | 2.60340 | 30107 ft | 308 kts | 313° |
| 2026-05-07 09:52 | 53.83076 | 2.54955 | 30106 ft | 307 kts | 313° |
| 2026-05-07 09:52 | 53.85936 | 2.49552 | 30106 ft | 307 kts | 313° |
| 2026-05-07 09:53 | 53.88770 | 2.44188 | 30102 ft | 307 kts | 313° |
| 2026-05-07 09:53 | 53.91625 | 2.38773 | 30102 ft | 307 kts | 313° |
| 2026-05-07 09:54 | 53.94469 | 2.33366 | 30104 ft | 307 kts | 313° |
| 2026-05-07 09:54 | 53.97292 | 2.27989 | 30104 ft | 307 kts | 313° |
| 2026-05-07 09:55 | 54.00174 | 2.22590 | 30111 ft | 306 kts | 317° |
| 2026-05-07 09:55 | 54.03561 | 2.18306 | 30117 ft | 306 kts | 324° |
| 2026-05-07 09:56 | 54.06882 | 2.13778 | 30117 ft | 305 kts | 321° |
| 2026-05-07 09:56 | 54.10213 | 2.09279 | 30117 ft | 305 kts | 322° |
| 2026-05-07 09:57 | 54.13540 | 2.04770 | 30114 ft | 305 kts | 322° |
| 2026-05-07 09:57 | 54.16846 | 2.00278 | 30113 ft | 305 kts | 322° |
| 2026-05-07 09:58 | 54.20170 | 1.95754 | 30113 ft | 305 kts | 322° |
| 2026-05-07 09:58 | 54.23494 | 1.91219 | 30121 ft | 305 kts | 321° |
| 2026-05-07 09:59 | 54.26813 | 1.86683 | 30121 ft | 305 kts | 321° |
| 2026-05-07 09:59 | 54.30125 | 1.82147 | 30120 ft | 305 kts | 321° |
| 2026-05-07 10:00 | 54.33436 | 1.77600 | 30120 ft | 305 kts | 321° |
| 2026-05-07 10:00 | 54.36724 | 1.73079 | 30121 ft | 304 kts | 321° |
| 2026-05-07 10:01 | 54.40025 | 1.68526 | 30117 ft | 304 kts | 321° |
| 2026-05-07 10:01 | 54.43328 | 1.63963 | 30117 ft | 304 kts | 321° |
| 2026-05-07 10:02 | 54.46630 | 1.59392 | 30117 ft | 305 kts | 320° |
| 2026-05-07 10:02 | 54.49930 | 1.54814 | 30120 ft | 305 kts | 320° |
| 2026-05-07 10:03 | 54.53205 | 1.50260 | 30121 ft | 304 kts | 320° |
| 2026-05-07 10:03 | 54.56501 | 1.45667 | 30118 ft | 304 kts | 320° |
| 2026-05-07 10:04 | 54.59795 | 1.41068 | 30117 ft | 304 kts | 320° |
| 2026-05-07 10:04 | 54.63063 | 1.36493 | 30117 ft | 304 kts | 320° |
| 2026-05-07 10:05 | 54.66349 | 1.31886 | 30111 ft | 304 kts | 320° |
| 2026-05-07 10:05 | 54.69633 | 1.27270 | 30108 ft | 304 kts | 320° |
| 2026-05-07 10:06 | 54.72914 | 1.22648 | 30111 ft | 304 kts | 320° |
| 2026-05-07 10:06 | 54.76196 | 1.18018 | 30114 ft | 304 kts | 320° |
| 2026-05-07 10:07 | 54.79480 | 1.13371 | 30112 ft | 305 kts | 320° |
| 2026-05-07 10:07 | 54.82746 | 1.08741 | 30112 ft | 304 kts | 320° |
| 2026-05-07 10:08 | 54.86026 | 1.04082 | 30110 ft | 305 kts | 319° |
| 2026-05-07 10:08 | 54.89303 | 0.99414 | 30109 ft | 305 kts | 319° |
| 2026-05-07 10:09 | 54.92578 | 0.94742 | 30109 ft | 305 kts | 319° |
| 2026-05-07 10:09 | 54.95859 | 0.90051 | 30107 ft | 304 kts | 319° |
| 2026-05-07 10:10 | 54.99113 | 0.85387 | 30104 ft | 304 kts | 319° |
| 2026-05-07 10:10 | 55.02381 | 0.80693 | 30104 ft | 305 kts | 319° |
| 2026-05-07 10:11 | 55.05652 | 0.75986 | 30106 ft | 304 kts | 319° |
| 2026-05-07 10:11 | 55.08918 | 0.71274 | 30103 ft | 304 kts | 319° |
| 2026-05-07 10:12 | 55.12159 | 0.66589 | 30103 ft | 304 kts | 319° |
| 2026-05-07 10:12 | 55.15416 | 0.61870 | 30100 ft | 304 kts | 319° |
| 2026-05-07 10:13 | 55.18144 | 0.57909 | 30095 ft | 304 kts | 319° |
| 2026-05-07 10:13 | 55.21380 | 0.53204 | 30096 ft | 304 kts | 318° |
| 2026-05-07 10:14 | 55.24627 | 0.48469 | 30097 ft | 303 kts | 318° |
| 2026-05-07 10:14 | 55.27865 | 0.43739 | 30089 ft | 303 kts | 318° |
| 2026-05-07 10:15 | 55.31105 | 0.38994 | 30091 ft | 302 kts | 318° |
| 2026-05-07 10:15 | 55.34332 | 0.34257 | 30090 ft | 302 kts | 318° |
| 2026-05-07 10:16 | 55.37537 | 0.29545 | 30087 ft | 302 kts | 318° |
| 2026-05-07 10:16 | 55.40756 | 0.24800 | 30087 ft | 302 kts | 317° |
| 2026-05-07 10:17 | 55.43970 | 0.20053 | 30078 ft | 301 kts | 317° |
| 2026-05-07 10:17 | 55.47182 | 0.15298 | 30078 ft | 301 kts | 318° |
| 2026-05-07 10:18 | 55.50391 | 0.10535 | 30078 ft | 301 kts | 317° |
| 2026-05-07 10:18 | 55.53582 | 0.05793 | 30081 ft | 302 kts | 317° |
| 2026-05-07 10:19 | 55.56795 | 0.01005 | 30082 ft | 301 kts | 317° |
| 2026-05-07 10:19 | 55.60000 | -0.03783 | 30072 ft | 301 kts | 317° |
| 2026-05-07 10:20 | 55.63198 | -0.08569 | 30071 ft | 301 kts | 317° |
| 2026-05-07 10:20 | 55.64792 | -0.10960 | 30074 ft | 300 kts | 317° |
| 2026-05-07 10:20 | 55.66385 | -0.13352 | 30071 ft | 300 kts | 317° |
| 2026-05-07 10:20 | 55.67979 | -0.15745 | 30072 ft | 300 kts | 317° |
| 2026-05-07 10:21 | 55.69568 | -0.18136 | 30069 ft | 300 kts | 317° |
| 2026-05-07 10:21 | 55.71157 | -0.20529 | 30069 ft | 299 kts | 317° |
| 2026-05-07 10:21 | 55.72727 | -0.22896 | 30068 ft | 299 kts | 317° |
| 2026-05-07 10:21 | 55.74315 | -0.25293 | 30071 ft | 299 kts | 317° |
| 2026-05-07 10:22 | 55.75908 | -0.27700 | 30073 ft | 299 kts | 317° |
| 2026-05-07 10:22 | 55.77493 | -0.30098 | 30067 ft | 299 kts | 317° |
| 2026-05-07 10:22 | 55.79079 | -0.32499 | 30065 ft | 300 kts | 316° |
| 2026-05-07 10:22 | 55.80665 | -0.34903 | 30069 ft | 300 kts | 316° |
| 2026-05-07 10:23 | 55.82249 | -0.37308 | 30069 ft | 299 kts | 316° |
| 2026-05-07 10:23 | 55.83832 | -0.39712 | 30072 ft | 299 kts | 316° |
| 2026-05-07 10:23 | 55.85416 | -0.42122 | 30068 ft | 299 kts | 316° |
| 2026-05-07 10:23 | 55.86973 | -0.44494 | 30069 ft | 298 kts | 316° |
| 2026-05-07 10:24 | 55.88554 | -0.46903 | 30063 ft | 298 kts | 316° |
| 2026-05-07 10:24 | 55.90129 | -0.49308 | 30063 ft | 298 kts | 316° |
| 2026-05-07 10:24 | 55.91705 | -0.51714 | 30058 ft | 298 kts | 316° |
| 2026-05-07 10:24 | 55.93281 | -0.54126 | 30062 ft | 298 kts | 316° |
| 2026-05-07 10:25 | 55.94856 | -0.56537 | 30062 ft | 298 kts | 316° |
| 2026-05-07 10:25 | 55.96430 | -0.58950 | 30062 ft | 298 kts | 316° |
| 2026-05-07 10:25 | 55.98010 | -0.61374 | 30062 ft | 298 kts | 316° |
| 2026-05-07 10:25 | 55.99562 | -0.63759 | 30062 ft | 298 kts | 316° |
| 2026-05-07 10:26 | 56.01134 | -0.66179 | 30059 ft | 298 kts | 316° |
| 2026-05-07 10:26 | 56.02703 | -0.68594 | 30053 ft | 298 kts | 316° |
| 2026-05-07 10:26 | 56.04278 | -0.71021 | 30053 ft | 298 kts | 316° |
| 2026-05-07 10:26 | 56.05847 | -0.73444 | 30053 ft | 298 kts | 316° |
| 2026-05-07 10:27 | 56.07416 | -0.75868 | 30053 ft | 298 kts | 316° |
| 2026-05-07 10:27 | 56.08987 | -0.78296 | 30053 ft | 298 kts | 316° |
| 2026-05-07 10:27 | 56.10556 | -0.80725 | 30050 ft | 298 kts | 316° |
| 2026-05-07 10:27 | 56.12125 | -0.83159 | 30050 ft | 298 kts | 316° |
| 2026-05-07 10:28 | 56.13694 | -0.85594 | 30048 ft | 298 kts | 316° |
| 2026-05-07 10:28 | 56.15246 | -0.88004 | 30050 ft | 298 kts | 316° |
| 2026-05-07 10:28 | 56.16811 | -0.90438 | 30046 ft | 298 kts | 316° |
| 2026-05-07 10:28 | 56.18378 | -0.92879 | 30039 ft | 298 kts | 316° |
| 2026-05-07 10:29 | 56.19945 | -0.95321 | 30039 ft | 298 kts | 316° |
| 2026-05-07 10:29 | 56.21510 | -0.97765 | 30038 ft | 298 kts | 316° |
| 2026-05-07 10:29 | 56.23074 | -1.00207 | 30036 ft | 298 kts | 316° |
| 2026-05-07 10:30 | 56.26182 | -1.05071 | 30037 ft | 298 kts | 316° |
| 2026-05-07 10:30 | 56.27743 | -1.07518 | 30038 ft | 298 kts | 316° |
| 2026-05-07 10:30 | 56.29305 | -1.09971 | 30037 ft | 297 kts | 316° |
| 2026-05-07 10:30 | 56.30865 | -1.12421 | 30043 ft | 298 kts | 315° |
| 2026-05-07 10:31 | 56.32430 | -1.14882 | 30040 ft | 298 kts | 315° |
| 2026-05-07 10:31 | 56.33988 | -1.17336 | 30032 ft | 298 kts | 315° |
| 2026-05-07 10:31 | 56.35546 | -1.19792 | 30032 ft | 297 kts | 315° |
| 2026-05-07 10:31 | 56.37109 | -1.22257 | 30032 ft | 297 kts | 315° |
| 2026-05-07 10:32 | 56.38663 | -1.24713 | 30028 ft | 297 kts | 315° |
| 2026-05-07 10:32 | 56.40196 | -1.27139 | 30028 ft | 297 kts | 315° |
| 2026-05-07 10:32 | 56.41747 | -1.29595 | 30027 ft | 297 kts | 315° |
| 2026-05-07 10:32 | 56.43300 | -1.32057 | 30027 ft | 297 kts | 315° |
| 2026-05-07 10:33 | 56.44853 | -1.34522 | 30027 ft | 297 kts | 315° |
| 2026-05-07 10:33 | 56.46403 | -1.36984 | 30027 ft | 297 kts | 315° |
| 2026-05-07 10:33 | 56.47951 | -1.39446 | 30019 ft | 296 kts | 315° |
| 2026-05-07 10:33 | 56.49498 | -1.41912 | 30018 ft | 296 kts | 315° |
| 2026-05-07 10:34 | 56.51049 | -1.44383 | 30015 ft | 296 kts | 315° |
| 2026-05-07 10:34 | 56.52594 | -1.46850 | 30013 ft | 296 kts | 315° |
| 2026-05-07 10:34 | 56.54145 | -1.49328 | 30013 ft | 296 kts | 315° |
| 2026-05-07 10:34 | 56.55690 | -1.51801 | 30013 ft | 296 kts | 315° |
| 2026-05-07 10:35 | 56.57235 | -1.54274 | 30020 ft | 297 kts | 314° |
| 2026-05-07 10:35 | 56.58782 | -1.56755 | 30019 ft | 296 kts | 314° |
| 2026-05-07 10:35 | 56.60324 | -1.59230 | 30019 ft | 296 kts | 314° |
| 2026-05-07 10:35 | 56.61844 | -1.61673 | 30019 ft | 295 kts | 314° |
| 2026-05-07 10:36 | 56.63385 | -1.64151 | 30011 ft | 295 kts | 314° |
| 2026-05-07 10:36 | 56.64920 | -1.66625 | 30010 ft | 295 kts | 314° |
| 2026-05-07 10:36 | 56.66455 | -1.69098 | 30012 ft | 295 kts | 314° |
| 2026-05-07 10:36 | 56.67987 | -1.71572 | 30010 ft | 295 kts | 314° |
| 2026-05-07 10:37 | 56.69520 | -1.74051 | 30007 ft | 295 kts | 314° |
| 2026-05-07 10:37 | 56.71054 | -1.76533 | 30011 ft | 295 kts | 313° |
| 2026-05-07 10:37 | 56.72586 | -1.79016 | 30010 ft | 295 kts | 314° |
| 2026-05-07 10:37 | 56.74125 | -1.81511 | 30010 ft | 295 kts | 313° |
| 2026-05-07 10:38 | 56.75659 | -1.84001 | 30006 ft | 295 kts | 314° |
| 2026-05-07 10:38 | 56.77194 | -1.86495 | 30006 ft | 296 kts | 313° |
| 2026-05-07 10:38 | 56.78729 | -1.88995 | 29998 ft | 296 kts | 313° |
| 2026-05-07 10:38 | 56.80263 | -1.91493 | 29998 ft | 296 kts | 313° |
| 2026-05-07 10:39 | 56.81798 | -1.93998 | 29998 ft | 296 kts | 313° |
| 2026-05-07 10:39 | 56.83334 | -1.96503 | 30000 ft | 296 kts | 313° |
| 2026-05-07 10:39 | 56.84871 | -1.99016 | 30000 ft | 296 kts | 313° |
| 2026-05-07 10:39 | 56.86403 | -2.01523 | 30000 ft | 296 kts | 313° |
| 2026-05-07 10:40 | 56.87921 | -2.04011 | 29999 ft | 296 kts | 313° |
| 2026-05-07 10:40 | 56.89453 | -2.06524 | 29957 ft | 297 kts | 313° |
| 2026-05-07 10:40 | 56.91021 | -2.09104 | 29545 ft | 306 kts | 313° |
| 2026-05-07 10:40 | 56.92697 | -2.11529 | 29141 ft | 313 kts | 325° |
| 2026-05-07 10:41 | 56.94751 | -2.12991 | 28757 ft | 320 kts | 336° |
| 2026-05-07 10:41 | 56.96869 | -2.14252 | 28366 ft | 320 kts | 336° |
| 2026-05-07 10:41 | 56.98980 | -2.15537 | 27986 ft | 320 kts | 336° |
| 2026-05-07 10:41 | 57.01096 | -2.16840 | 27612 ft | 321 kts | 336° |
| 2026-05-07 10:42 | 57.03215 | -2.18139 | 27242 ft | 321 kts | 336° |
| 2026-05-07 10:42 | 57.05341 | -2.19443 | 26874 ft | 322 kts | 336° |
| 2026-05-07 10:42 | 57.07469 | -2.20747 | 26519 ft | 322 kts | 336° |
| 2026-05-07 10:42 | 57.09598 | -2.22059 | 26175 ft | 322 kts | 335° |
| 2026-05-07 10:43 | 57.11717 | -2.23407 | 25796 ft | 322 kts | 335° |
| 2026-05-07 10:43 | 57.13844 | -2.24732 | 25425 ft | 323 kts | 335° |
| 2026-05-07 10:43 | 57.15981 | -2.26038 | 25058 ft | 324 kts | 335° |
| 2026-05-07 10:43 | 57.18095 | -2.27332 | 24699 ft | 324 kts | 335° |
| 2026-05-07 10:44 | 57.20239 | -2.28660 | 24338 ft | 325 kts | 335° |
| 2026-05-07 10:44 | 57.22384 | -2.29990 | 23984 ft | 325 kts | 335° |
| 2026-05-07 10:44 | 57.24536 | -2.31320 | 23634 ft | 326 kts | 335° |
| 2026-05-07 10:44 | 57.26691 | -2.32657 | 23230 ft | 326 kts | 335° |
| 2026-05-07 10:45 | 57.28853 | -2.33999 | 22822 ft | 327 kts | 335° |
| 2026-05-07 10:45 | 57.31013 | -2.35344 | 22455 ft | 328 kts | 336° |
| 2026-05-07 10:45 | 57.33175 | -2.36689 | 22106 ft | 328 kts | 336° |
| 2026-05-07 10:45 | 57.35316 | -2.38022 | 21769 ft | 329 kts | 336° |
| 2026-05-07 10:46 | 57.37492 | -2.39377 | 21511 ft | 330 kts | 335° |
| 2026-05-07 10:46 | 57.39679 | -2.40748 | 21093 ft | 334 kts | 335° |
| 2026-05-07 10:46 | 57.41883 | -2.42133 | 20658 ft | 335 kts | 335° |
| 2026-05-07 10:46 | 57.44101 | -2.43515 | 20225 ft | 336 kts | 335° |
| 2026-05-07 10:47 | 57.46326 | -2.44901 | 19795 ft | 337 kts | 335° |
| 2026-05-07 10:47 | 57.48550 | -2.46301 | 19366 ft | 338 kts | 335° |
| 2026-05-07 10:47 | 57.50782 | -2.47705 | 18946 ft | 338 kts | 335° |
| 2026-05-07 10:47 | 57.53009 | -2.49104 | 18542 ft | 338 kts | 335° |
| 2026-05-07 10:48 | 57.55207 | -2.50493 | 18129 ft | 338 kts | 335° |
| 2026-05-07 10:48 | 57.57429 | -2.51887 | 17657 ft | 336 kts | 336° |
| 2026-05-07 10:48 | 57.59627 | -2.53263 | 17195 ft | 330 kts | 335° |
| 2026-05-07 10:48 | 57.61787 | -2.54648 | 16741 ft | 326 kts | 335° |
| 2026-05-07 10:49 | 57.63927 | -2.56024 | 16308 ft | 324 kts | 335° |
| 2026-05-07 10:49 | 57.66057 | -2.57361 | 15866 ft | 321 kts | 336° |
| 2026-05-07 10:49 | 57.68166 | -2.58697 | 15426 ft | 319 kts | 335° |
| 2026-05-07 10:49 | 57.70257 | -2.60038 | 14993 ft | 317 kts | 336° |
| 2026-05-07 10:50 | 57.72341 | -2.61365 | 14566 ft | 316 kts | 336° |
| 2026-05-07 10:50 | 57.74416 | -2.62683 | 14153 ft | 314 kts | 336° |
| 2026-05-07 10:50 | 57.76475 | -2.64001 | 13778 ft | 311 kts | 336° |
| 2026-05-07 10:50 | 57.78513 | -2.65300 | 13377 ft | 308 kts | 336° |
| 2026-05-07 10:51 | 57.80514 | -2.66576 | 13093 ft | 299 kts | 336° |
| 2026-05-07 10:51 | 57.82461 | -2.67824 | 12803 ft | 292 kts | 336° |
| 2026-05-07 10:51 | 57.84345 | -2.69049 | 12539 ft | 288 kts | 336° |
| 2026-05-07 10:51 | 57.86231 | -2.70261 | 12270 ft | 285 kts | 336° |
| 2026-05-07 10:52 | 57.88101 | -2.71462 | 11964 ft | 281 kts | 337° |
| 2026-05-07 10:52 | 57.89910 | -2.72585 | 11588 ft | 267 kts | 336° |
| 2026-05-07 10:52 | 57.91643 | -2.73713 | 11199 ft | 260 kts | 335° |
| 2026-05-07 10:52 | 57.93335 | -2.74843 | 10815 ft | 256 kts | 335° |
| 2026-05-07 10:53 | 57.95013 | -2.75926 | 10432 ft | 253 kts | 336° |
| 2026-05-07 10:53 | 57.96675 | -2.76991 | 10059 ft | 251 kts | 336° |
| 2026-05-07 10:53 | 57.98316 | -2.78050 | 9677 ft | 248 kts | 336° |
| 2026-05-07 10:53 | 57.99938 | -2.79099 | 9278 ft | 244 kts | 336° |
| 2026-05-07 10:54 | 58.01514 | -2.80129 | 8929 ft | 242 kts | 336° |
| 2026-05-07 10:54 | 58.03099 | -2.81160 | 8641 ft | 239 kts | 336° |
| 2026-05-07 10:54 | 58.04662 | -2.82174 | 8372 ft | 236 kts | 336° |
| 2026-05-07 10:54 | 58.06212 | -2.83181 | 8106 ft | 234 kts | 336° |
| 2026-05-07 10:55 | 58.07745 | -2.84179 | 7910 ft | 230 kts | 336° |
| 2026-05-07 10:55 | 58.09264 | -2.85191 | 7910 ft | 234 kts | 336° |
| 2026-05-07 10:55 | 58.10833 | -2.86224 | 7706 ft | 245 kts | 337° |
| 2026-05-07 10:55 | 58.12450 | -2.87235 | 7450 ft | 242 kts | 338° |
| 2026-05-07 10:56 | 58.14031 | -2.88249 | 7192 ft | 237 kts | 336° |
| 2026-05-07 10:56 | 58.15587 | -2.89289 | 6894 ft | 236 kts | 336° |
| 2026-05-07 10:56 | 58.17130 | -2.90303 | 6599 ft | 234 kts | 337° |
| 2026-05-07 10:56 | 58.18649 | -2.91297 | 6303 ft | 234 kts | 336° |
| 2026-05-07 10:57 | 58.20183 | -2.92304 | 5988 ft | 233 kts | 336° |
| 2026-05-07 10:57 | 58.21717 | -2.93308 | 5671 ft | 233 kts | 336° |
| 2026-05-07 10:57 | 58.23250 | -2.94315 | 5353 ft | 232 kts | 337° |
| 2026-05-07 10:57 | 58.24778 | -2.95321 | 5047 ft | 233 kts | 337° |
| 2026-05-07 10:58 | 58.26303 | -2.96320 | 4738 ft | 231 kts | 337° |
| 2026-05-07 10:58 | 58.27825 | -2.97322 | 4410 ft | 231 kts | 336° |
| 2026-05-07 10:58 | 58.29339 | -2.98323 | 4099 ft | 230 kts | 336° |
| 2026-05-07 10:58 | 58.30849 | -2.99319 | 3788 ft | 229 kts | 336° |
| 2026-05-07 10:59 | 58.31855 | -2.99984 | 3580 ft | 229 kts | 336° |
| 2026-05-07 10:59 | 58.33361 | -3.00975 | 3274 ft | 228 kts | 337° |
| 2026-05-07 10:59 | 58.35299 | -3.02205 | 2857 ft | 214 kts | 337° |
| 2026-05-07 10:59 | 58.36693 | -3.03052 | 2555 ft | 208 kts | 337° |
| 2026-05-07 11:00 | 58.38065 | -3.03878 | 2235 ft | 206 kts | 338° |
| 2026-05-07 11:00 | 58.38969 | -3.04421 | 2019 ft | 195 kts | 338° |
| 2026-05-07 11:00 | 58.40221 | -3.05172 | 1754 ft | 190 kts | 338° |
| 2026-05-07 11:00 | 58.41379 | -3.06276 | 1475 ft | 183 kts | 314° |
| 2026-05-07 11:01 | 58.42307 | -3.07912 | 1212 ft | 182 kts | 310° |
| 2026-05-07 11:01 | 58.43194 | -3.09526 | 1179 ft | 168 kts | 307° |
| 2026-05-07 11:01 | 58.43964 | -3.11122 | 1193 ft | 160 kts | 304° |
| 2026-05-07 11:01 | 58.44715 | -3.12710 | 1189 ft | 160 kts | 305° |
| 2026-05-07 11:02 | 58.45428 | -3.14219 | 1175 ft | 142 kts | 305° |
| 2026-05-07 11:02 | 58.46039 | -3.15556 | 1167 ft | 131 kts | 302° |
| 2026-05-07 11:02 | 58.46774 | -3.16518 | 1173 ft | 134 kts | 351° |
| 2026-05-07 11:02 | 58.47635 | -3.16017 | 1093 ft | 129 kts | 39° |
| 2026-05-07 11:03 | 58.47999 | -3.14715 | 916 ft | 107 kts | 115° |
| 2026-05-07 11:03 | 58.47583 | -3.13607 | 647 ft | 100 kts | 134° |
| 2026-05-07 11:03 | 58.47183 | -3.12580 | 488 ft | 96 kts | 130° |
| 2026-05-07 11:03 | 58.46770 | -3.11566 | 332 ft | 89 kts | 131° |
| 2026-05-07 11:04 | 58.46466 | -3.10785 | 215 ft | 66 kts | 130° |
| 2026-05-07 11:04 | 58.46187 | -3.10081 | 123 ft | 61 kts | 131° |
| 2026-05-07 11:04 | 58.46009 | -3.09631 | 120 ft | 29 kts | 127° |
| 2026-05-07 11:04 | 58.45886 | -3.09319 | 117 ft | 32 kts | 126° |
| 2026-05-07 11:05 | 58.45746 | -3.08966 | 121 ft | 32 kts | 126° |
| 2026-05-07 11:05 | 58.45639 | -3.08694 | 122 ft | 20 kts | 128° |
| 2026-05-07 11:05 | 58.45575 | -3.08606 | 119 ft | 11 kts | 207° |
| 2026-05-07 11:05 | 58.45509 | -3.08742 | 120 ft | 18 kts | 222° |
| 2026-05-07 11:06 | 58.45484 | -3.08783 | 120 ft | 0 kts | 221° |
| 2026-05-07 11:06 | 58.45484 | -3.08784 | 121 ft | 0 kts | 218° |
| 2026-05-07 11:06 | 58.45464 | -3.08788 | 119 ft | 2 kts | 163° |
| 2026-05-07 11:06 | 58.45452 | -3.08778 | 120 ft | 4 kts | 153° |
| 2026-05-07 11:07 | 58.45417 | -3.08775 | 120 ft | 6 kts | 237° |
| 2026-05-07 11:07 | 58.45381 | -3.08876 | 118 ft | 6 kts | 224° |
| 2026-05-07 11:07 | 58.45368 | -3.08888 | 119 ft | 2 kts | 149° |
| 2026-05-07 11:07 | 58.45367 | -3.08886 | 119 ft | 0 kts | 132° |